SBCT/CWB METAR and TAF weather

Enter ICAO airport designator
Station Type Date Time Source
SBCT METAR 2018/12/15 04:00 UTC NOAA

SBCT 150400Z 13005KT CAVOK 22/19 Q1021


Station Type Date Time Source
SBCT Decoded METAR 2018/12/15 04:00 UTC NOAA

Curitiba Aeroporto , Brazil (SBCT) 25-31S 049-10W 908M
Dec 14, 2018 - 11:00 PM EST / 2018.12.15 0400 UTC
Wind: from the SE (130 degrees) at 6 MPH (5 KT):0
Visibility: greater than 7 mile(s):0
Temperature: 71 F (22 C)
Dew Point: 66 F (19 C)
Relative Humidity: 83%
Pressure (altimeter): 30.15 in. Hg (1021 hPa)
ob: SBCT 150400Z 13005KT CAVOK 22/19 Q1021
cycle: 4

Station Type Date Time Source
SBCT TAF 2018/12/15 00:29 UTC NOAA

TAF SBCT 142200Z 1500/1524 33009KT 9999 FEW010 TN19/1508Z TX32/1518Z PROB40
TEMPO 1500/1508 BKN010
BECMG 1508/1510 33005KT SCT020 PROB40
TEMPO 1516/1522 8000 SHRA SCT030 FEW035TCU
RMK PEB


Example: see airport list